Pago Pago, AS

7:37 PM SST on October 24, 2014 (GMT -1100)
Kona International At Keahole | Change Station
CLOSE
Current Station
Airport
Location: Keahole Point,
Elevation: 43 ft
Nearby Weather Stations

Elev 43 ft 19.74 °N, 156.05 °W | Updated 44 minutes ago

Scattered Clouds
Scattered Clouds
82 °F
Feels Like 86 °F
N
4
Wind Variable Wind from WSW

Today
High -- | Low -- °F
--% Chance of Precip.
Yesterday
High -- | Low -- °F
Precip. -- in
5:51 AM 6:22 PM
New Moon, 2% visible
Pressure 30.01 in
Visibility 10.0 miles
Clouds Scattered Clouds 5000 ft
Heat Index 86 °F
Dew Point 71 °F
Humidity 69%
Rainfall 0.00 in
Snow Depth Not available.
UV 0 out of 12
Pollen Not available.
Air Quality Not available.
Flu Activity
METAR PHKO 250553Z 25003KT 10SM SCT050 28/22 A3000 RMK AO2 SLP161 T02780217 10306 20272 51016

More Conditions Fewer Conditions

Pressure 30.01 in
Visibility 10.0 miles
Clouds Scattered Clouds 5000 ft
Heat Index 86 °F
Dew Point 71 °F
Humidity 69%
Rainfall 0.00 in
Snow Depth Not available.
UV 0 out of 12
Pollen Not available.
Air Quality Not available.
Flu Activity
METAR PHKO 250553Z 25003KT 10SM SCT050 28/22 A3000 RMK AO2 SLP161 T02780217 10306 20272 51016

More Conditions Fewer Conditions

10-Day Weather Forecast

Almanac

Astronomy

Oct. 24, 2014 Rise Set
Actual Time 5:51 AM SST 6:22 PM SST
Civil Twilight 5:29 AM SST 6:44 PM SST
Nautical Twilight 5:03 AM SST 7:10 PM SST
Astronomical Twilight 4:37 AM SST 7:36 PM SST
Moon 6:33 AM SST (10/24) 7:27 PM SST (10/24)
Length of Visible Light 13h 15m
Length of Day
12h 31m
Tomorrow will be 0m 46s longer.
New Moon, 2% of the Moon is Illuminated
Oct 25
New Moon
Oct 30
First Quarter
Nov 6
Full
Nov 14
Last Quarter
Nov 22
New

Community

WunderPhotos

Upload Photos

1,764,785 photos uploaded!

Nearby

Snow Depth

Station Depth Elevation
No new snow has been reported.

Earthquake Activity

City Distance Mag. Time & Date
No recent earthquake activity has been reported nearby.
Minimum magnitude displayed is 2.5.

Coastal Water Temperatures

Place Temperature
No Stations Reporting

Nearby Weather Stations